sensor_id;sensor_type;location;lat;lon;timestamp;pressure;altitude;pressure_sealevel;temperature;humidity
49949;BME280;35840;45.982;8.890;2024-03-02T00:00:08;97542.69;;;7.18;100.00
49949;BME280;35840;45.982;8.890;2024-03-02T00:02:44;97543.06;;;7.27;100.00
49949;BME280;35840;45.982;8.890;2024-03-02T00:05:12;97542.97;;;7.28;100.00
49949;BME280;35840;45.982;8.890;2024-03-02T00:07:43;97543.53;;;7.19;100.00
49949;BME280;35840;45.982;8.890;2024-03-02T00:10:13;97546.63;;;7.10;100.00
49949;BME280;35840;45.982;8.890;2024-03-02T00:12:41;97541.16;;;7.16;100.00
49949;BME280;35840;45.982;8.890;2024-03-02T00:18:04;97546.44;;;7.27;100.00
49949;BME280;35840;45.982;8.890;2024-03-02T00:20:32;97541.25;;;7.29;100.00
49949;BME280;35840;45.982;8.890;2024-03-02T00:23:04;97539.50;;;7.29;100.00
49949;BME280;35840;45.982;8.890;2024-03-02T00:33:20;97531.25;;;7.38;100.00
49949;BME280;35840;45.982;8.890;2024-03-02T00:35:48;97534.19;;;7.47;100.00
49949;BME280;35840;45.982;8.890;2024-03-02T00:38:16;97537.75;;;7.44;100.00
49949;BME280;35840;45.982;8.890;2024-03-02T00:40:43;97542.84;;;7.44;100.00
49949;BME280;35840;45.982;8.890;2024-03-02T00:43:41;97541.50;;;7.38;100.00
49949;BME280;35840;45.982;8.890;2024-03-02T00:46:16;97541.69;;;7.35;100.00
49949;BME280;35840;45.982;8.890;2024-03-02T00:49:04;97515.53;;;7.17;100.00
49949;BME280;35840;45.982;8.890;2024-03-02T00:51:32;97544.34;;;7.34;100.00
49949;BME280;35840;45.982;8.890;2024-03-02T00:54:07;97542.28;;;7.12;100.00
49949;BME280;35840;45.982;8.890;2024-03-02T00:56:34;97541.72;;;7.06;100.00
49949;BME280;35840;45.982;8.890;2024-03-02T00:59:02;97538.69;;;6.85;100.00
49949;BME280;35840;45.982;8.890;2024-03-02T01:01:29;97540.38;;;6.70;100.00
49949;BME280;35840;45.982;8.890;2024-03-02T01:03:56;97533.47;;;6.72;100.00
49949;BME280;35840;45.982;8.890;2024-03-02T01:06:23;97541.31;;;6.84;100.00
49949;BME280;35840;45.982;8.890;2024-03-02T01:08:50;97540.78;;;6.93;100.00
49949;BME280;35840;45.982;8.890;2024-03-02T01:11:20;97540.44;;;6.99;100.00
49949;BME280;35840;45.982;8.890;2024-03-02T01:13:50;97536.03;;;6.87;100.00
49949;BME280;35840;45.982;8.890;2024-03-02T01:16:18;97541.44;;;6.97;100.00
49949;BME280;35840;45.982;8.890;2024-03-02T01:18:46;97542.81;;;7.02;100.00
49949;BME280;35840;45.982;8.890;2024-03-02T01:21:13;97533.66;;;6.98;100.00
49949;BME280;35840;45.982;8.890;2024-03-02T01:23:40;97540.72;;;7.09;100.00
49949;BME280;35840;45.982;8.890;2024-03-02T01:26:07;97543.69;;;7.16;100.00
49949;BME280;35840;45.982;8.890;2024-03-02T01:28:34;97531.56;;;7.19;100.00
49949;BME280;35840;45.982;8.890;2024-03-02T01:31:01;97535.50;;;7.25;100.00
49949;BME280;35840;45.982;8.890;2024-03-02T01:33:28;97532.94;;;7.25;100.00
49949;BME280;35840;45.982;8.890;2024-03-02T01:35:55;97530.38;;;7.25;100.00
49949;BME280;35840;45.982;8.890;2024-03-02T01:38:22;97540.41;;;7.28;100.00
49949;BME280;35840;45.982;8.890;2024-03-02T01:40:52;97530.00;;;7.31;100.00
49949;BME280;35840;45.982;8.890;2024-03-02T01:43:19;97531.47;;;7.35;100.00
49949;BME280;35840;45.982;8.890;2024-03-02T01:45:46;97530.00;;;7.31;100.00
49949;BME280;35840;45.982;8.890;2024-03-02T01:48:13;97535.31;;;7.28;100.00
49949;BME280;35840;45.982;8.890;2024-03-02T01:50:40;97532.28;;;7.21;100.00
49949;BME280;35840;45.982;8.890;2024-03-02T01:53:08;97515.31;;;6.92;100.00
49949;BME280;35840;45.982;8.890;2024-03-02T01:55:35;97521.41;;;6.75;100.00
49949;BME280;35840;45.982;8.890;2024-03-02T01:58:02;97522.59;;;6.69;100.00
49949;BME280;35840;45.982;8.890;2024-03-02T02:00:29;97529.44;;;6.68;100.00
49949;BME280;35840;45.982;8.890;2024-03-02T02:02:56;97527.06;;;6.65;100.00
49949;BME280;35840;45.982;8.890;2024-03-02T02:05:24;97524.44;;;6.67;100.00
49949;BME280;35840;45.982;8.890;2024-03-02T02:07:51;97525.34;;;6.80;100.00
49949;BME280;35840;45.982;8.890;2024-03-02T02:10:18;97534.03;;;6.92;100.00
49949;BME280;35840;45.982;8.890;2024-03-02T02:12:45;97532.28;;;6.93;100.00
49949;BME280;35840;45.982;8.890;2024-03-02T02:17:48;97524.44;;;6.96;100.00
49949;BME280;35840;45.982;8.890;2024-03-02T02:20:15;97530.13;;;7.01;100.00
49949;BME280;35840;45.982;8.890;2024-03-02T02:22:58;97515.41;;;7.04;100.00
49949;BME280;35840;45.982;8.890;2024-03-02T02:25:26;97511.94;;;7.05;100.00
49949;BME280;35840;45.982;8.890;2024-03-02T02:27:53;97507.59;;;7.07;100.00
49949;BME280;35840;45.982;8.890;2024-03-02T02:30:25;97502.09;;;7.14;100.00
49949;BME280;35840;45.982;8.890;2024-03-02T02:32:52;97502.19;;;7.12;100.00
49949;BME280;35840;45.982;8.890;2024-03-02T02:35:19;97502.00;;;7.15;100.00
49949;BME280;35840;45.982;8.890;2024-03-02T02:37:46;97506.66;;;6.94;100.00
49949;BME280;35840;45.982;8.890;2024-03-02T02:40:14;97500.44;;;6.84;100.00
49949;BME280;35840;45.982;8.890;2024-03-02T02:42:41;97493.69;;;6.83;100.00
49949;BME280;35840;45.982;8.890;2024-03-02T02:45:08;97493.22;;;6.62;100.00
49949;BME280;35840;45.982;8.890;2024-03-02T02:47:35;97497.25;;;6.66;100.00
49949;BME280;35840;45.982;8.890;2024-03-02T02:50:03;97491.97;;;6.83;100.00
49949;BME280;35840;45.982;8.890;2024-03-02T02:52:34;97491.69;;;6.88;100.00
49949;BME280;35840;45.982;8.890;2024-03-02T02:55:04;97487.41;;;6.88;100.00
49949;BME280;35840;45.982;8.890;2024-03-02T02:57:34;97495.53;;;6.95;100.00
49949;BME280;35840;45.982;8.890;2024-03-02T03:00:05;97487.38;;;7.03;100.00
49949;BME280;35840;45.982;8.890;2024-03-02T03:02:37;97479.56;;;7.06;100.00
49949;BME280;35840;45.982;8.890;2024-03-02T03:05:05;97485.38;;;7.08;100.00
49949;BME280;35840;45.982;8.890;2024-03-02T03:07:33;97481.75;;;7.12;100.00
49949;BME280;35840;45.982;8.890;2024-03-02T03:10:03;97479.00;;;7.15;100.00
49949;BME280;35840;45.982;8.890;2024-03-02T03:12:31;97478.88;;;7.17;100.00
49949;BME280;35840;45.982;8.890;2024-03-02T03:15:00;97477.34;;;7.14;100.00
49949;BME280;35840;45.982;8.890;2024-03-02T03:17:28;97480.84;;;7.13;100.00
49949;BME280;35840;45.982;8.890;2024-03-02T03:19:55;97485.00;;;7.14;100.00
49949;BME280;35840;45.982;8.890;2024-03-02T03:22:22;97472.50;;;7.10;100.00
49949;BME280;35840;45.982;8.890;2024-03-02T03:24:49;97484.56;;;7.22;100.00
49949;BME280;35840;45.982;8.890;2024-03-02T03:27:16;97478.91;;;7.02;100.00
49949;BME280;35840;45.982;8.890;2024-03-02T03:29:43;97478.38;;;6.83;100.00
49949;BME280;35840;45.982;8.890;2024-03-02T03:32:10;97477.38;;;6.85;100.00
49949;BME280;35840;45.982;8.890;2024-03-02T03:34:36;97486.03;;;6.97;100.00
49949;BME280;35840;45.982;8.890;2024-03-02T03:37:03;97481.28;;;6.91;100.00
49949;BME280;35840;45.982;8.890;2024-03-02T03:39:30;97483.66;;;6.80;100.00
49949;BME280;35840;45.982;8.890;2024-03-02T03:41:57;97487.88;;;6.81;100.00
49949;BME280;35840;45.982;8.890;2024-03-02T03:44:24;97485.56;;;6.76;100.00
49949;BME280;35840;45.982;8.890;2024-03-02T03:46:51;97491.31;;;6.80;100.00
49949;BME280;35840;45.982;8.890;2024-03-02T03:49:18;97494.06;;;6.77;100.00
49949;BME280;35840;45.982;8.890;2024-03-02T03:51:45;97496.34;;;6.81;100.00
49949;BME280;35840;45.982;8.890;2024-03-02T03:54:12;97487.31;;;6.90;100.00
49949;BME280;35840;45.982;8.890;2024-03-02T03:56:39;97492.22;;;6.93;100.00
49949;BME280;35840;45.982;8.890;2024-03-02T03:59:06;97499.88;;;6.93;100.00
49949;BME280;35840;45.982;8.890;2024-03-02T04:01:33;97507.31;;;6.98;100.00
49949;BME280;35840;45.982;8.890;2024-03-02T04:04:00;97486.13;;;6.81;100.00
49949;BME280;35840;45.982;8.890;2024-03-02T04:06:30;97489.84;;;6.90;100.00
49949;BME280;35840;45.982;8.890;2024-03-02T04:08:58;97487.13;;;6.79;100.00
49949;BME280;35840;45.982;8.890;2024-03-02T04:11:25;97502.53;;;6.92;100.00
49949;BME280;35840;45.982;8.890;2024-03-02T04:13:51;97505.38;;;6.87;100.00
49949;BME280;35840;45.982;8.890;2024-03-02T04:16:22;97501.91;;;6.88;100.00
49949;BME280;35840;45.982;8.890;2024-03-02T04:18:49;97509.31;;;6.78;100.00
49949;BME280;35840;45.982;8.890;2024-03-02T04:21:16;97502.91;;;6.85;100.00
49949;BME280;35840;45.982;8.890;2024-03-02T04:23:43;97503.19;;;6.81;100.00
49949;BME280;35840;45.982;8.890;2024-03-02T04:26:10;97508.31;;;6.95;100.00
49949;BME280;35840;45.982;8.890;2024-03-02T04:28:37;97510.84;;;6.95;100.00
49949;BME280;35840;45.982;8.890;2024-03-02T04:31:03;97515.59;;;7.01;100.00
49949;BME280;35840;45.982;8.890;2024-03-02T04:33:30;97517.91;;;7.06;100.00
49949;BME280;35840;45.982;8.890;2024-03-02T04:35:57;97512.84;;;7.04;100.00
49949;BME280;35840;45.982;8.890;2024-03-02T04:38:24;97514.59;;;7.04;100.00
49949;BME280;35840;45.982;8.890;2024-03-02T04:40:51;97515.25;;;7.07;100.00
49949;BME280;35840;45.982;8.890;2024-03-02T04:43:18;97517.91;;;7.06;100.00
49949;BME280;35840;45.982;8.890;2024-03-02T04:45:45;97521.34;;;7.05;100.00
49949;BME280;35840;45.982;8.890;2024-03-02T04:48:13;97531.47;;;7.06;100.00
49949;BME280;35840;45.982;8.890;2024-03-02T04:50:41;97514.31;;;7.09;100.00
49949;BME280;35840;45.982;8.890;2024-03-02T04:53:08;97523.53;;;7.11;100.00
49949;BME280;35840;45.982;8.890;2024-03-02T04:55:36;97528.94;;;7.06;100.00
49949;BME280;35840;45.982;8.890;2024-03-02T04:58:05;97528.94;;;7.06;100.00
49949;BME280;35840;45.982;8.890;2024-03-02T05:00:34;97526.28;;;7.08;100.00
49949;BME280;35840;45.982;8.890;2024-03-02T05:03:04;97530.03;;;6.88;100.00
49949;BME280;35840;45.982;8.890;2024-03-02T05:05:31;97523.44;;;6.98;100.00
49949;BME280;35840;45.982;8.890;2024-03-02T05:07:57;97532.75;;;6.99;100.00
49949;BME280;35840;45.982;8.890;2024-03-02T05:10:24;97534.94;;;7.05;100.00
49949;BME280;35840;45.982;8.890;2024-03-02T05:12:51;97536.03;;;7.01;100.00
49949;BME280;35840;45.982;8.890;2024-03-02T05:15:27;97540.53;;;6.98;100.00
49949;BME280;35840;45.982;8.890;2024-03-02T05:17:54;97537.03;;;6.99;100.00
49949;BME280;35840;45.982;8.890;2024-03-02T05:20:23;97532.56;;;7.02;100.00
49949;BME280;35840;45.982;8.890;2024-03-02T05:22:50;97537.41;;;7.07;100.00
49949;BME280;35840;45.982;8.890;2024-03-02T05:25:17;97545.16;;;7.05;100.00
49949;BME280;35840;45.982;8.890;2024-03-02T05:27:44;97542.53;;;7.07;100.00
49949;BME280;35840;45.982;8.890;2024-03-02T05:30:11;97552.41;;;7.13;100.00
49949;BME280;35840;45.982;8.890;2024-03-02T05:32:38;97548.28;;;7.11;100.00
49949;BME280;35840;45.982;8.890;2024-03-02T05:35:05;97551.66;;;7.11;100.00
49949;BME280;35840;45.982;8.890;2024-03-02T05:37:32;97552.56;;;7.10;100.00
49949;BME280;35840;45.982;8.890;2024-03-02T05:39:59;97550.75;;;7.12;100.00
49949;BME280;35840;45.982;8.890;2024-03-02T05:42:26;97558.31;;;7.14;100.00
49949;BME280;35840;45.982;8.890;2024-03-02T05:44:54;97546.72;;;7.08;100.00
49949;BME280;35840;45.982;8.890;2024-03-02T05:47:21;97547.44;;;7.10;100.00
49949;BME280;35840;45.982;8.890;2024-03-02T05:49:48;97549.19;;;7.10;100.00
49949;BME280;35840;45.982;8.890;2024-03-02T05:52:15;97557.41;;;7.15;100.00
49949;BME280;35840;45.982;8.890;2024-03-02T05:54:42;97563.44;;;7.14;100.00
49949;BME280;35840;45.982;8.890;2024-03-02T05:57:09;97562.63;;;7.13;100.00
49949;BME280;35840;45.982;8.890;2024-03-02T06:00:06;97560.69;;;7.17;100.00
49949;BME280;35840;45.982;8.890;2024-03-02T06:02:40;97566.00;;;7.14;100.00
49949;BME280;35840;45.982;8.890;2024-03-02T06:05:08;97566.28;;;7.09;100.00
49949;BME280;35840;45.982;8.890;2024-03-02T06:07:35;97549.09;;;6.97;100.00
49949;BME280;35840;45.982;8.890;2024-03-02T06:10:02;97579.13;;;7.07;100.00
49949;BME280;35840;45.982;8.890;2024-03-02T06:12:31;97572.47;;;7.05;100.00
49949;BME280;35840;45.982;8.890;2024-03-02T06:14:58;97573.00;;;6.96;100.00
49949;BME280;35840;45.982;8.890;2024-03-02T06:17:25;97567.06;;;6.95;100.00
49949;BME280;35840;45.982;8.890;2024-03-02T06:19:52;97579.03;;;6.95;100.00
49949;BME280;35840;45.982;8.890;2024-03-02T06:22:19;97583.59;;;6.89;100.00
49949;BME280;35840;45.982;8.890;2024-03-02T06:24:46;97587.41;;;6.97;100.00
49949;BME280;35840;45.982;8.890;2024-03-02T06:27:13;97595.81;;;6.99;100.00
49949;BME280;35840;45.982;8.890;2024-03-02T06:29:40;97590.25;;;6.92;100.00
49949;BME280;35840;45.982;8.890;2024-03-02T06:32:06;97586.50;;;6.83;100.00
49949;BME280;35840;45.982;8.890;2024-03-02T06:34:33;97590.44;;;6.89;100.00
49949;BME280;35840;45.982;8.890;2024-03-02T06:37:00;97590.34;;;6.91;100.00
49949;BME280;35840;45.982;8.890;2024-03-02T06:39:27;97580.28;;;6.87;100.00
49949;BME280;35840;45.982;8.890;2024-03-02T06:41:53;97585.19;;;6.76;100.00
49949;BME280;35840;45.982;8.890;2024-03-02T06:44:20;97593.41;;;6.81;100.00
49949;BME280;35840;45.982;8.890;2024-03-02T06:46:47;97593.31;;;6.83;100.00
49949;BME280;35840;45.982;8.890;2024-03-02T06:49:14;97597.63;;;6.82;100.00
49949;BME280;35840;45.982;8.890;2024-03-02T06:51:41;97604.13;;;6.88;100.00
49949;BME280;35840;45.982;8.890;2024-03-02T06:54:09;97600.47;;;6.92;100.00
49949;BME280;35840;45.982;8.890;2024-03-02T06:56:35;97599.00;;;6.88;100.00
49949;BME280;35840;45.982;8.890;2024-03-02T06:59:03;97608.31;;;6.89;100.00
49949;BME280;35840;45.982;8.890;2024-03-02T07:01:29;97613.84;;;6.81;100.00
49949;BME280;35840;45.982;8.890;2024-03-02T07:03:56;97608.38;;;6.87;100.00
49949;BME280;35840;45.982;8.890;2024-03-02T07:06:23;97610.03;;;6.88;100.00
49949;BME280;35840;45.982;8.890;2024-03-02T07:08:50;97615.63;;;6.95;100.00
49949;BME280;35840;45.982;8.890;2024-03-02T07:11:17;97615.63;;;6.95;100.00
49949;BME280;35840;45.982;8.890;2024-03-02T07:13:44;97618.59;;;6.87;100.00
49949;BME280;35840;45.982;8.890;2024-03-02T07:16:11;97610.88;;;6.89;100.00
49949;BME280;35840;45.982;8.890;2024-03-02T07:18:56;97623.47;;;6.92;100.00
49949;BME280;35840;45.982;8.890;2024-03-02T07:21:24;97626.84;;;6.93;100.00
49949;BME280;35840;45.982;8.890;2024-03-02T07:23:51;97626.84;;;6.93;100.00
49949;BME280;35840;45.982;8.890;2024-03-02T07:26:18;97627.66;;;6.93;100.00
49949;BME280;35840;45.982;8.890;2024-03-02T07:28:48;97619.66;;;6.99;100.00
49949;BME280;35840;45.982;8.890;2024-03-02T07:31:15;97634.78;;;6.88;100.00
49949;BME280;35840;45.982;8.890;2024-03-02T07:33:45;97628.81;;;6.87;100.00
49949;BME280;35840;45.982;8.890;2024-03-02T07:36:15;97636.88;;;6.96;100.00
49949;BME280;35840;45.982;8.890;2024-03-02T07:38:43;97635.63;;;7.03;100.00
49949;BME280;35840;45.982;8.890;2024-03-02T07:41:11;97640.47;;;7.07;100.00
49949;BME280;35840;45.982;8.890;2024-03-02T07:43:38;97637.75;;;7.11;100.00
49949;BME280;35840;45.982;8.890;2024-03-02T07:46:06;97636.44;;;7.03;100.00
49949;BME280;35840;45.982;8.890;2024-03-02T07:48:33;97645.69;;;7.06;100.00
49949;BME280;35840;45.982;8.890;2024-03-02T07:51:00;97645.50;;;7.09;100.00
49949;BME280;35840;45.982;8.890;2024-03-02T07:53:28;97650.59;;;7.09;100.00
49949;BME280;35840;45.982;8.890;2024-03-02T07:55:56;97645.59;;;7.07;100.00
49949;BME280;35840;45.982;8.890;2024-03-02T07:58:28;97644.00;;;6.91;100.00
49949;BME280;35840;45.982;8.890;2024-03-02T08:00:56;97647.75;;;6.99;100.00
49949;BME280;35840;45.982;8.890;2024-03-02T08:03:23;97651.75;;;6.89;100.00
49949;BME280;35840;45.982;8.890;2024-03-02T08:05:50;97655.72;;;6.79;100.00
49949;BME280;35840;45.982;8.890;2024-03-02T08:08:17;97654.63;;;6.83;100.00
49949;BME280;35840;45.982;8.890;2024-03-02T08:10:44;97663.59;;;6.90;100.00
49949;BME280;35840;45.982;8.890;2024-03-02T08:13:11;97672.31;;;7.02;100.00
49949;BME280;35840;45.982;8.890;2024-03-02T08:15:38;97663.72;;;7.03;100.00
49949;BME280;35840;45.982;8.890;2024-03-02T08:18:05;97674.03;;;7.01;100.00
49949;BME280;35840;45.982;8.890;2024-03-02T08:20:32;97675.59;;;7.04;100.00
49949;BME280;35840;45.982;8.890;2024-03-02T08:22:59;97672.84;;;6.93;100.00
49949;BME280;35840;45.982;8.890;2024-03-02T08:25:26;97670.94;;;6.96;100.00
49949;BME280;35840;45.982;8.890;2024-03-02T08:27:53;97673.50;;;6.96;100.00
49949;BME280;35840;45.982;8.890;2024-03-02T08:30:19;97671.47;;;7.01;100.00
49949;BME280;35840;45.982;8.890;2024-03-02T08:32:46;97672.88;;;7.07;100.00
49949;BME280;35840;45.982;8.890;2024-03-02T08:35:14;97679.16;;;7.01;100.00
49949;BME280;35840;45.982;8.890;2024-03-02T08:37:42;97678.06;;;7.05;100.00
49949;BME280;35840;45.982;8.890;2024-03-02T08:40:10;97666.19;;;7.04;100.00
49949;BME280;35840;45.982;8.890;2024-03-02T08:42:40;97680.00;;;7.16;100.00
49949;BME280;35840;45.982;8.890;2024-03-02T08:45:07;97679.19;;;7.16;100.00
49949;BME280;35840;45.982;8.890;2024-03-02T08:47:34;97679.19;;;7.16;100.00
49949;BME280;35840;45.982;8.890;2024-03-02T08:50:01;97685.50;;;7.24;100.00
49949;BME280;35840;45.982;8.890;2024-03-02T08:52:28;97685.50;;;7.24;100.00
49949;BME280;35840;45.982;8.890;2024-03-02T08:54:55;97672.88;;;7.07;100.00
49949;BME280;35840;45.982;8.890;2024-03-02T08:57:22;97689.97;;;7.21;100.00
49949;BME280;35840;45.982;8.890;2024-03-02T08:59:49;97696.72;;;7.22;100.00
49949;BME280;35840;45.982;8.890;2024-03-02T09:02:16;97697.72;;;7.19;100.00
49949;BME280;35840;45.982;8.890;2024-03-02T09:04:43;97689.25;;;7.19;100.00
49949;BME280;35840;45.982;8.890;2024-03-02T09:07:10;97696.72;;;7.22;100.00
49949;BME280;35840;45.982;8.890;2024-03-02T09:09:36;97700.00;;;7.24;100.00
49949;BME280;35840;45.982;8.890;2024-03-02T09:12:06;97698.38;;;7.23;100.00
49949;BME280;35840;45.982;8.890;2024-03-02T09:14:34;97707.50;;;7.27;100.00
49949;BME280;35840;45.982;8.890;2024-03-02T09:17:03;97706.69;;;7.27;100.00
49949;BME280;35840;45.982;8.890;2024-03-02T09:19:30;97700.75;;;7.26;100.00
49949;BME280;35840;45.982;8.890;2024-03-02T09:21:57;97705.88;;;7.26;100.00
49949;BME280;35840;45.982;8.890;2024-03-02T09:24:25;97704.78;;;7.30;100.00
49949;BME280;35840;45.982;8.890;2024-03-02T09:26:52;97704.44;;;7.36;100.00
49949;BME280;35840;45.982;8.890;2024-03-02T09:29:19;97708.06;;;7.32;100.00
49949;BME280;35840;45.982;8.890;2024-03-02T09:31:47;97706.31;;;7.33;100.00
49949;BME280;35840;45.982;8.890;2024-03-02T09:34:14;97709.06;;;7.30;100.00
49949;BME280;35840;45.982;8.890;2024-03-02T09:36:42;97696.66;;;7.23;100.00
49949;BME280;35840;45.982;8.890;2024-03-02T09:39:10;97700.69;;;7.28;100.00
49949;BME280;35840;45.982;8.890;2024-03-02T09:41:38;97709.63;;;7.35;100.00
49949;BME280;35840;45.982;8.890;2024-03-02T09:44:05;97699.78;;;7.43;100.00
49949;BME280;35840;45.982;8.890;2024-03-02T09:46:32;97704.06;;;7.43;100.00
49949;BME280;35840;45.982;8.890;2024-03-02T09:48:59;97699.97;;;7.40;100.00
49949;BME280;35840;45.982;8.890;2024-03-02T09:51:26;97710.19;;;7.40;100.00
49949;BME280;35840;45.982;8.890;2024-03-02T09:53:54;97706.97;;;7.36;100.00
49949;BME280;35840;45.982;8.890;2024-03-02T09:56:28;97704.34;;;7.38;100.00
49949;BME280;35840;45.982;8.890;2024-03-02T09:58:55;97709.25;;;7.41;100.00
49949;BME280;35840;45.982;8.890;2024-03-02T10:01:22;97713.47;;;7.42;100.00
49949;BME280;35840;45.982;8.890;2024-03-02T10:03:50;97712.38;;;7.46;100.00
49949;BME280;35840;45.982;8.890;2024-03-02T10:06:24;97701.59;;;7.41;100.00
49949;BME280;35840;45.982;8.890;2024-03-02T10:08:51;97708.28;;;7.44;100.00
49949;BME280;35840;45.982;8.890;2024-03-02T10:11:32;97709.75;;;7.48;100.00
49949;BME280;35840;45.982;8.890;2024-03-02T10:14:13;97709.56;;;7.51;100.00
49949;BME280;35840;45.982;8.890;2024-03-02T10:16:42;97707.91;;;7.50;100.00
49949;BME280;35840;45.982;8.890;2024-03-02T10:21:46;97709.25;;;7.41;100.00
49949;BME280;35840;45.982;8.890;2024-03-02T10:24:13;97713.38;;;7.44;100.00
49949;BME280;35840;45.982;8.890;2024-03-02T10:26:39;97718.13;;;7.50;100.00
49949;BME280;35840;45.982;8.890;2024-03-02T10:29:09;97711.22;;;7.52;100.00
49949;BME280;35840;45.982;8.890;2024-03-02T10:31:42;97718.59;;;7.56;100.00
49949;BME280;35840;45.982;8.890;2024-03-02T10:34:10;97721.06;;;7.58;100.00
49949;BME280;35840;45.982;8.890;2024-03-02T10:36:41;97706.47;;;7.60;100.00
49949;BME280;35840;45.982;8.890;2024-03-02T10:39:08;97713.16;;;7.63;100.00
49949;BME280;35840;45.982;8.890;2024-03-02T10:41:37;97707.38;;;7.59;100.00
49949;BME280;35840;45.982;8.890;2024-03-02T10:44:08;97719.59;;;7.54;100.00
49949;BME280;35840;45.982;8.890;2024-03-02T10:46:37;97712.50;;;7.59;100.00
49949;BME280;35840;45.982;8.890;2024-03-02T10:49:05;97704.09;;;7.57;100.00
49949;BME280;35840;45.982;8.890;2024-03-02T10:51:35;97701.59;;;7.55;100.00
49949;BME280;35840;45.982;8.890;2024-03-02T10:54:04;97720.97;;;7.59;100.00
49949;BME280;35840;45.982;8.890;2024-03-02T10:56:43;97714.25;;;7.58;100.00
49949;BME280;35840;45.982;8.890;2024-03-02T10:59:33;97713.84;;;7.50;100.00
49949;BME280;35840;45.982;8.890;2024-03-02T11:02:03;97711.59;;;7.60;100.00
49949;BME280;35840;45.982;8.890;2024-03-02T11:04:32;97712.03;;;7.52;100.00
49949;BME280;35840;45.982;8.890;2024-03-02T11:07:05;97713.56;;;7.40;100.00
49949;BME280;35840;45.982;8.890;2024-03-02T11:09:35;97710.91;;;7.42;100.00
49949;BME280;35840;45.982;8.890;2024-03-02T11:12:05;97709.16;;;7.43;100.00
49949;BME280;35840;45.982;8.890;2024-03-02T11:14:34;97701.59;;;7.41;100.00
49949;BME280;35840;45.982;8.890;2024-03-02T11:17:04;97705.34;;;7.35;100.00
49949;BME280;35840;45.982;8.890;2024-03-02T11:19:31;97697.41;;;7.40;100.00
49949;BME280;35840;45.982;8.890;2024-03-02T11:22:00;97690.47;;;7.42;100.00
49949;BME280;35840;45.982;8.890;2024-03-02T11:24:30;97699.59;;;7.46;100.00
49949;BME280;35840;45.982;8.890;2024-03-02T11:27:07;97704.44;;;7.51;100.00
49949;BME280;35840;45.982;8.890;2024-03-02T11:32:22;97697.59;;;7.51;100.00
49949;BME280;35840;45.982;8.890;2024-03-02T11:34:52;97697.16;;;7.59;100.00
49949;BME280;35840;45.982;8.890;2024-03-02T11:37:19;97698.97;;;7.57;100.00
49949;BME280;35840;45.982;8.890;2024-03-02T11:39:50;97698.81;;;7.60;100.00
49949;BME280;35840;45.982;8.890;2024-03-02T11:42:18;97692.75;;;7.61;100.00
49949;BME280;35840;45.982;8.890;2024-03-02T11:44:46;97692.75;;;7.61;100.00
49949;BME280;35840;45.982;8.890;2024-03-02T11:47:15;97689.94;;;7.66;100.00
49949;BME280;35840;45.982;8.890;2024-03-02T11:49:48;97682.59;;;7.59;100.00
49949;BME280;35840;45.982;8.890;2024-03-02T11:52:16;97672.47;;;7.44;100.00
49949;BME280;35840;45.982;8.890;2024-03-02T11:54:46;97665.16;;;7.37;100.00
49949;BME280;35840;45.982;8.890;2024-03-02T11:57:14;97666.44;;;7.30;100.00
49949;BME280;35840;45.982;8.890;2024-03-02T11:59:43;97655.19;;;7.33;100.00
49949;BME280;35840;45.982;8.890;2024-03-02T12:02:18;97655.47;;;7.43;100.00
49949;BME280;35840;45.982;8.890;2024-03-02T12:04:46;97655.38;;;7.44;100.00
49949;BME280;35840;45.982;8.890;2024-03-02T12:07:22;97646.00;;;7.45;100.00
49949;BME280;35840;45.982;8.890;2024-03-02T12:10:00;97657.03;;;7.45;100.00
49949;BME280;35840;45.982;8.890;2024-03-02T12:12:30;97655.31;;;7.46;100.00
49949;BME280;35840;45.982;8.890;2024-03-02T12:14:57;97646.53;;;7.50;100.00
49949;BME280;35840;45.982;8.890;2024-03-02T12:17:26;97653.09;;;7.39;100.00
49949;BME280;35840;45.982;8.890;2024-03-02T12:19:53;97648.88;;;7.38;100.00
49949;BME280;35840;45.982;8.890;2024-03-02T12:22:21;97650.09;;;7.47;100.00
49949;BME280;35840;45.982;8.890;2024-03-02T12:24:48;97641.41;;;7.50;100.00
49949;BME280;35840;45.982;8.890;2024-03-02T12:27:16;97637.56;;;7.43;100.00
49949;BME280;35840;45.982;8.890;2024-03-02T12:29:43;97632.38;;;7.44;100.00
49949;BME280;35840;45.982;8.890;2024-03-02T12:32:10;97623.78;;;7.45;100.00
49949;BME280;35840;45.982;8.890;2024-03-02T12:34:38;97630.47;;;7.48;100.00
49949;BME280;35840;45.982;8.890;2024-03-02T12:37:05;97634.19;;;7.56;100.00
49949;BME280;35840;45.982;8.890;2024-03-02T12:39:32;97629.19;;;7.55;100.00
49949;BME280;35840;45.982;8.890;2024-03-02T12:41:59;97621.69;;;7.52;100.00
49949;BME280;35840;45.982;8.890;2024-03-02T12:44:29;97610.38;;;7.41;100.00
49949;BME280;35840;45.982;8.890;2024-03-02T12:46:56;97614.03;;;7.52;100.00
49949;BME280;35840;45.982;8.890;2024-03-02T12:49:26;97622.25;;;7.57;100.00
49949;BME280;35840;45.982;8.890;2024-03-02T12:51:55;97614.38;;;7.60;100.00
49949;BME280;35840;45.982;8.890;2024-03-02T12:54:25;97607.63;;;7.59;100.00
49949;BME280;35840;45.982;8.890;2024-03-02T12:56:53;97614.81;;;7.67;100.00
49949;BME280;35840;45.982;8.890;2024-03-02T12:59:21;97614.91;;;7.65;100.00
49949;BME280;35840;45.982;8.890;2024-03-02T13:01:53;97615.84;;;7.64;100.00
49949;BME280;35840;45.982;8.890;2024-03-02T13:04:25;97615.66;;;7.67;100.00
49949;BME280;35840;45.982;8.890;2024-03-02T13:06:52;97611.53;;;7.65;100.00
49949;BME280;35840;45.982;8.890;2024-03-02T13:09:20;97620.94;;;7.50;100.00
49949;BME280;35840;45.982;8.890;2024-03-02T13:11:47;97617.94;;;7.57;100.00
49949;BME280;35840;45.982;8.890;2024-03-02T13:14:14;97605.78;;;7.61;100.00
49949;BME280;35840;45.982;8.890;2024-03-02T13:16:41;97609.63;;;7.68;100.00
49949;BME280;35840;45.982;8.890;2024-03-02T13:19:13;97613.03;;;7.54;100.00
49949;BME280;35840;45.982;8.890;2024-03-02T13:21:41;97609.16;;;7.62;100.00
49949;BME280;35840;45.982;8.890;2024-03-02T13:24:09;97608.16;;;7.64;100.00